sensor_id;sensor_type;location;lat;lon;timestamp;P1;durP1;ratioP1;P2;durP2;ratioP2
18376;SDS011;9315;52.624;13.544;2023-05-23T00:00:19;4.03;;;2.50;;
18376;SDS011;9315;52.624;13.544;2023-05-23T00:02:50;2.30;;;1.97;;
18376;SDS011;9315;52.624;13.544;2023-05-23T00:05:25;4.67;;;2.30;;
18376;SDS011;9315;52.624;13.544;2023-05-23T00:07:59;5.80;;;2.50;;
18376;SDS011;9315;52.624;13.544;2023-05-23T00:10:37;6.23;;;2.27;;
18376;SDS011;9315;52.624;13.544;2023-05-23T00:13:12;6.13;;;2.43;;
18376;SDS011;9315;52.624;13.544;2023-05-23T00:15:59;5.40;;;2.20;;
18376;SDS011;9315;52.624;13.544;2023-05-23T00:18:54;3.57;;;2.27;;
18376;SDS011;9315;52.624;13.544;2023-05-23T00:21:45;9.00;;;2.57;;
18376;SDS011;9315;52.624;13.544;2023-05-23T00:24:22;5.93;;;2.70;;
18376;SDS011;9315;52.624;13.544;2023-05-23T00:31:28;3.53;;;2.30;;
18376;SDS011;9315;52.624;13.544;2023-05-23T00:34:00;6.13;;;2.33;;
18376;SDS011;9315;52.624;13.544;2023-05-23T00:36:31;9.63;;;2.67;;
18376;SDS011;9315;52.624;13.544;2023-05-23T00:39:15;6.97;;;2.67;;
18376;SDS011;9315;52.624;13.544;2023-05-23T00:42:05;5.97;;;2.63;;
18376;SDS011;9315;52.624;13.544;2023-05-23T00:45:07;5.00;;;2.37;;
18376;SDS011;9315;52.624;13.544;2023-05-23T00:48:53;2.70;;;2.30;;
18376;SDS011;9315;52.624;13.544;2023-05-23T00:51:55;9.67;;;2.57;;
18376;SDS011;9315;52.624;13.544;2023-05-23T00:54:43;3.23;;;2.50;;
18376;SDS011;9315;52.624;13.544;2023-05-23T00:57:13;5.33;;;2.27;;
18376;SDS011;9315;52.624;13.544;2023-05-23T01:00:32;5.23;;;2.97;;
18376;SDS011;9315;52.624;13.544;2023-05-23T01:03:52;7.63;;;2.60;;
18376;SDS011;9315;52.624;13.544;2023-05-23T01:09:33;5.90;;;2.40;;
18376;SDS011;9315;52.624;13.544;2023-05-23T01:12:20;5.27;;;2.70;;
18376;SDS011;9315;52.624;13.544;2023-05-23T01:16:06;3.33;;;2.43;;
18376;SDS011;9315;52.624;13.544;2023-05-23T01:19:25;4.57;;;2.77;;
18376;SDS011;9315;52.624;13.544;2023-05-23T01:25:38;4.67;;;2.90;;
18376;SDS011;9315;52.624;13.544;2023-05-23T01:28:49;4.30;;;2.77;;
18376;SDS011;9315;52.624;13.544;2023-05-23T01:31:38;3.67;;;2.70;;
18376;SDS011;9315;52.624;13.544;2023-05-23T01:34:18;4.00;;;2.97;;
18376;SDS011;9315;52.624;13.544;2023-05-23T01:37:09;5.00;;;2.70;;
18376;SDS011;9315;52.624;13.544;2023-05-23T01:39:53;3.73;;;2.50;;
18376;SDS011;9315;52.624;13.544;2023-05-23T01:42:57;5.07;;;2.90;;
18376;SDS011;9315;52.624;13.544;2023-05-23T01:46:07;4.23;;;2.63;;
18376;SDS011;9315;52.624;13.544;2023-05-23T01:49:13;3.80;;;2.70;;
18376;SDS011;9315;52.624;13.544;2023-05-23T01:51:55;4.93;;;2.93;;
18376;SDS011;9315;52.624;13.544;2023-05-23T01:54:38;8.03;;;3.03;;
18376;SDS011;9315;52.624;13.544;2023-05-23T01:57:18;5.13;;;2.80;;
18376;SDS011;9315;52.624;13.544;2023-05-23T02:00:19;6.43;;;3.07;;
18376;SDS011;9315;52.624;13.544;2023-05-23T02:02:53;4.97;;;3.13;;
18376;SDS011;9315;52.624;13.544;2023-05-23T02:05:20;7.67;;;3.10;;
18376;SDS011;9315;52.624;13.544;2023-05-23T02:07:48;5.03;;;2.80;;
18376;SDS011;9315;52.624;13.544;2023-05-23T02:10:16;10.33;;;3.43;;
18376;SDS011;9315;52.624;13.544;2023-05-23T02:12:44;7.67;;;3.30;;
18376;SDS011;9315;52.624;13.544;2023-05-23T02:15:12;8.17;;;3.50;;
18376;SDS011;9315;52.624;13.544;2023-05-23T02:17:42;5.47;;;3.20;;
18376;SDS011;9315;52.624;13.544;2023-05-23T02:20:13;5.73;;;3.00;;
18376;SDS011;9315;52.624;13.544;2023-05-23T02:22:46;4.40;;;3.20;;
18376;SDS011;9315;52.624;13.544;2023-05-23T02:25:30;5.87;;;3.33;;
18376;SDS011;9315;52.624;13.544;2023-05-23T02:28:00;8.23;;;3.23;;
18376;SDS011;9315;52.624;13.544;2023-05-23T02:30:52;8.30;;;3.33;;
18376;SDS011;9315;52.624;13.544;2023-05-23T02:33:23;6.23;;;3.10;;
18376;SDS011;9315;52.624;13.544;2023-05-23T02:35:51;5.37;;;2.87;;
18376;SDS011;9315;52.624;13.544;2023-05-23T02:38:21;5.57;;;3.10;;
18376;SDS011;9315;52.624;13.544;2023-05-23T02:41:11;7.17;;;3.20;;
18376;SDS011;9315;52.624;13.544;2023-05-23T02:43:41;5.67;;;3.87;;
18376;SDS011;9315;52.624;13.544;2023-05-23T02:49:50;7.47;;;3.10;;
18376;SDS011;9315;52.624;13.544;2023-05-23T02:52:40;4.77;;;2.57;;
18376;SDS011;9315;52.624;13.544;2023-05-23T02:55:22;4.30;;;2.93;;
18376;SDS011;9315;52.624;13.544;2023-05-23T02:57:51;6.23;;;3.07;;
18376;SDS011;9315;52.624;13.544;2023-05-23T03:00:24;5.80;;;2.90;;
18376;SDS011;9315;52.624;13.544;2023-05-23T03:02:59;8.00;;;3.40;;
18376;SDS011;9315;52.624;13.544;2023-05-23T03:05:30;8.10;;;3.63;;
18376;SDS011;9315;52.624;13.544;2023-05-23T03:08:45;5.27;;;3.13;;
18376;SDS011;9315;52.624;13.544;2023-05-23T03:11:22;5.20;;;3.43;;
18376;SDS011;9315;52.624;13.544;2023-05-23T03:14:05;4.10;;;2.60;;
18376;SDS011;9315;52.624;13.544;2023-05-23T03:16:39;9.10;;;3.40;;
18376;SDS011;9315;52.624;13.544;2023-05-23T03:19:06;7.10;;;2.67;;
18376;SDS011;9315;52.624;13.544;2023-05-23T03:21:36;3.33;;;2.60;;
18376;SDS011;9315;52.624;13.544;2023-05-23T03:24:04;10.20;;;3.50;;
18376;SDS011;9315;52.624;13.544;2023-05-23T03:26:32;8.37;;;3.20;;
18376;SDS011;9315;52.624;13.544;2023-05-23T03:29:04;13.17;;;3.10;;
18376;SDS011;9315;52.624;13.544;2023-05-23T03:31:32;10.23;;;3.30;;
18376;SDS011;9315;52.624;13.544;2023-05-23T03:34:46;11.23;;;3.27;;
18376;SDS011;9315;52.624;13.544;2023-05-23T03:38:01;6.57;;;3.00;;
18376;SDS011;9315;52.624;13.544;2023-05-23T03:40:29;4.33;;;2.43;;
18376;SDS011;9315;52.624;13.544;2023-05-23T03:43:03;8.47;;;2.87;;
18376;SDS011;9315;52.624;13.544;2023-05-23T03:45:32;4.10;;;2.73;;
18376;SDS011;9315;52.624;13.544;2023-05-23T03:48:00;6.37;;;3.13;;
18376;SDS011;9315;52.624;13.544;2023-05-23T03:50:28;4.50;;;3.10;;
18376;SDS011;9315;52.624;13.544;2023-05-23T03:52:55;6.10;;;3.40;;
18376;SDS011;9315;52.624;13.544;2023-05-23T03:55:23;5.77;;;3.37;;
18376;SDS011;9315;52.624;13.544;2023-05-23T03:57:50;7.33;;;3.03;;
18376;SDS011;9315;52.624;13.544;2023-05-23T04:00:18;9.20;;;2.80;;
18376;SDS011;9315;52.624;13.544;2023-05-23T04:02:45;6.47;;;3.40;;
18376;SDS011;9315;52.624;13.544;2023-05-23T04:05:12;7.10;;;3.57;;
18376;SDS011;9315;52.624;13.544;2023-05-23T04:07:40;7.80;;;3.63;;
18376;SDS011;9315;52.624;13.544;2023-05-23T04:10:08;9.53;;;3.47;;
18376;SDS011;9315;52.624;13.544;2023-05-23T04:12:36;9.80;;;3.67;;
18376;SDS011;9315;52.624;13.544;2023-05-23T04:15:06;12.20;;;3.93;;
18376;SDS011;9315;52.624;13.544;2023-05-23T04:17:35;8.80;;;3.67;;
18376;SDS011;9315;52.624;13.544;2023-05-23T04:20:07;15.40;;;3.87;;
18376;SDS011;9315;52.624;13.544;2023-05-23T04:22:36;9.57;;;3.90;;
18376;SDS011;9315;52.624;13.544;2023-05-23T04:25:03;5.57;;;3.40;;
18376;SDS011;9315;52.624;13.544;2023-05-23T04:27:32;4.80;;;3.30;;
18376;SDS011;9315;52.624;13.544;2023-05-23T04:30:06;7.33;;;3.40;;
18376;SDS011;9315;52.624;13.544;2023-05-23T04:32:37;11.23;;;3.40;;
18376;SDS011;9315;52.624;13.544;2023-05-23T04:35:04;5.73;;;3.83;;
18376;SDS011;9315;52.624;13.544;2023-05-23T04:37:32;8.60;;;3.37;;
18376;SDS011;9315;52.624;13.544;2023-05-23T04:40:00;11.23;;;3.83;;
18376;SDS011;9315;52.624;13.544;2023-05-23T04:42:28;10.07;;;3.63;;
18376;SDS011;9315;52.624;13.544;2023-05-23T04:44:56;6.40;;;3.00;;
18376;SDS011;9315;52.624;13.544;2023-05-23T04:47:23;9.20;;;4.03;;
18376;SDS011;9315;52.624;13.544;2023-05-23T04:49:56;7.30;;;3.70;;
18376;SDS011;9315;52.624;13.544;2023-05-23T04:52:23;10.07;;;3.30;;
18376;SDS011;9315;52.624;13.544;2023-05-23T04:57:52;5.93;;;3.30;;
18376;SDS011;9315;52.624;13.544;2023-05-23T05:00:19;4.30;;;3.70;;
18376;SDS011;9315;52.624;13.544;2023-05-23T05:02:47;14.17;;;3.97;;
18376;SDS011;9315;52.624;13.544;2023-05-23T05:05:17;7.10;;;3.80;;
18376;SDS011;9315;52.624;13.544;2023-05-23T05:07:44;8.57;;;3.50;;
18376;SDS011;9315;52.624;13.544;2023-05-23T05:10:11;7.30;;;4.43;;
18376;SDS011;9315;52.624;13.544;2023-05-23T05:12:45;6.80;;;3.67;;
18376;SDS011;9315;52.624;13.544;2023-05-23T05:15:19;7.43;;;3.97;;
18376;SDS011;9315;52.624;13.544;2023-05-23T05:17:46;8.73;;;3.97;;
18376;SDS011;9315;52.624;13.544;2023-05-23T05:20:15;9.50;;;3.80;;
18376;SDS011;9315;52.624;13.544;2023-05-23T05:22:42;11.40;;;3.90;;
18376;SDS011;9315;52.624;13.544;2023-05-23T05:25:20;8.67;;;4.00;;
18376;SDS011;9315;52.624;13.544;2023-05-23T05:27:47;5.57;;;3.50;;
18376;SDS011;9315;52.624;13.544;2023-05-23T05:30:15;7.80;;;4.07;;
18376;SDS011;9315;52.624;13.544;2023-05-23T05:32:42;10.93;;;3.67;;
18376;SDS011;9315;52.624;13.544;2023-05-23T05:35:11;9.23;;;4.27;;
18376;SDS011;9315;52.624;13.544;2023-05-23T05:37:39;9.23;;;4.20;;
18376;SDS011;9315;52.624;13.544;2023-05-23T05:40:08;7.00;;;4.10;;
18376;SDS011;9315;52.624;13.544;2023-05-23T05:42:46;15.07;;;4.60;;
18376;SDS011;9315;52.624;13.544;2023-05-23T05:45:17;9.53;;;4.10;;
18376;SDS011;9315;52.624;13.544;2023-05-23T05:47:44;14.30;;;4.80;;
18376;SDS011;9315;52.624;13.544;2023-05-23T05:50:14;16.67;;;4.80;;
18376;SDS011;9315;52.624;13.544;2023-05-23T05:52:42;14.80;;;4.30;;
18376;SDS011;9315;52.624;13.544;2023-05-23T05:55:09;13.87;;;4.47;;
18376;SDS011;9315;52.624;13.544;2023-05-23T05:57:40;11.50;;;4.57;;
18376;SDS011;9315;52.624;13.544;2023-05-23T06:00:08;8.37;;;3.90;;
18376;SDS011;9315;52.624;13.544;2023-05-23T06:02:45;9.30;;;4.87;;
18376;SDS011;9315;52.624;13.544;2023-05-23T06:05:23;8.20;;;4.95;;
18376;SDS011;9315;52.624;13.544;2023-05-23T06:07:51;7.40;;;4.33;;
18376;SDS011;9315;52.624;13.544;2023-05-23T06:10:21;7.13;;;3.93;;
18376;SDS011;9315;52.624;13.544;2023-05-23T06:12:49;6.30;;;4.47;;
18376;SDS011;9315;52.624;13.544;2023-05-23T06:15:17;6.03;;;4.43;;
18376;SDS011;9315;52.624;13.544;2023-05-23T06:17:44;8.63;;;4.20;;
18376;SDS011;9315;52.624;13.544;2023-05-23T06:20:12;13.17;;;4.00;;
18376;SDS011;9315;52.624;13.544;2023-05-23T06:22:40;12.23;;;4.43;;
18376;SDS011;9315;52.624;13.544;2023-05-23T06:25:10;13.40;;;4.53;;
18376;SDS011;9315;52.624;13.544;2023-05-23T06:27:37;14.48;;;4.18;;
18376;SDS011;9315;52.624;13.544;2023-05-23T06:30:05;15.00;;;4.40;;
18376;SDS011;9315;52.624;13.544;2023-05-23T06:32:34;10.97;;;3.70;;
18376;SDS011;9315;52.624;13.544;2023-05-23T06:35:06;10.47;;;4.30;;
18376;SDS011;9315;52.624;13.544;2023-05-23T06:37:36;17.92;;;4.00;;
18376;SDS011;9315;52.624;13.544;2023-05-23T06:40:08;8.05;;;4.43;;
18376;SDS011;9315;52.624;13.544;2023-05-23T06:42:40;13.18;;;4.90;;
18376;SDS011;9315;52.624;13.544;2023-05-23T06:45:08;12.45;;;5.32;;
18376;SDS011;9315;52.624;13.544;2023-05-23T06:47:42;8.18;;;3.90;;
18376;SDS011;9315;52.624;13.544;2023-05-23T06:50:11;9.02;;;4.57;;
18376;SDS011;9315;52.624;13.544;2023-05-23T06:52:38;6.82;;;4.47;;
18376;SDS011;9315;52.624;13.544;2023-05-23T06:55:07;10.73;;;4.90;;
18376;SDS011;9315;52.624;13.544;2023-05-23T06:57:35;12.88;;;4.88;;
18376;SDS011;9315;52.624;13.544;2023-05-23T07:00:17;9.07;;;4.88;;
18376;SDS011;9315;52.624;13.544;2023-05-23T07:02:51;10.60;;;4.20;;
18376;SDS011;9315;52.624;13.544;2023-05-23T07:05:22;7.78;;;4.05;;
18376;SDS011;9315;52.624;13.544;2023-05-23T07:07:52;9.77;;;4.20;;
18376;SDS011;9315;52.624;13.544;2023-05-23T07:10:20;13.68;;;4.57;;
18376;SDS011;9315;52.624;13.544;2023-05-23T07:12:48;9.55;;;4.82;;
18376;SDS011;9315;52.624;13.544;2023-05-23T07:15:16;11.27;;;5.05;;
18376;SDS011;9315;52.624;13.544;2023-05-23T07:17:43;9.77;;;5.05;;
18376;SDS011;9315;52.624;13.544;2023-05-23T07:20:10;12.05;;;4.97;;
18376;SDS011;9315;52.624;13.544;2023-05-23T07:22:38;13.15;;;4.88;;
18376;SDS011;9315;52.624;13.544;2023-05-23T07:25:08;15.63;;;4.70;;
18376;SDS011;9315;52.624;13.544;2023-05-23T07:27:35;14.90;;;5.38;;
18376;SDS011;9315;52.624;13.544;2023-05-23T07:30:04;11.48;;;4.72;;
18376;SDS011;9315;52.624;13.544;2023-05-23T07:32:35;10.55;;;4.50;;
18376;SDS011;9315;52.624;13.544;2023-05-23T07:35:02;10.75;;;4.80;;
18376;SDS011;9315;52.624;13.544;2023-05-23T07:37:31;12.02;;;5.00;;
18376;SDS011;9315;52.624;13.544;2023-05-23T07:39:59;11.13;;;5.43;;
18376;SDS011;9315;52.624;13.544;2023-05-23T07:42:26;10.02;;;5.20;;
18376;SDS011;9315;52.624;13.544;2023-05-23T07:44:53;8.75;;;5.10;;
18376;SDS011;9315;52.624;13.544;2023-05-23T07:47:24;14.32;;;5.35;;
18376;SDS011;9315;52.624;13.544;2023-05-23T07:49:53;14.55;;;4.95;;
18376;SDS011;9315;52.624;13.544;2023-05-23T07:52:20;11.15;;;4.50;;
18376;SDS011;9315;52.624;13.544;2023-05-23T07:54:47;12.82;;;5.28;;
18376;SDS011;9315;52.624;13.544;2023-05-23T07:57:15;9.18;;;5.10;;
18376;SDS011;9315;52.624;13.544;2023-05-23T07:59:44;9.95;;;5.25;;
18376;SDS011;9315;52.624;13.544;2023-05-23T08:02:12;8.38;;;4.75;;
18376;SDS011;9315;52.624;13.544;2023-05-23T08:04:40;9.05;;;4.95;;
18376;SDS011;9315;52.624;13.544;2023-05-23T08:10:20;15.32;;;4.60;;
18376;SDS011;9315;52.624;13.544;2023-05-23T08:12:53;9.70;;;4.88;;
18376;SDS011;9315;52.624;13.544;2023-05-23T08:15:45;11.15;;;4.68;;
18376;SDS011;9315;52.624;13.544;2023-05-23T08:18:12;26.15;;;6.93;;
18376;SDS011;9315;52.624;13.544;2023-05-23T08:20:40;11.48;;;4.00;;
18376;SDS011;9315;52.624;13.544;2023-05-23T08:23:17;9.32;;;4.22;;
18376;SDS011;9315;52.624;13.544;2023-05-23T08:25:46;12.15;;;4.38;;
18376;SDS011;9315;52.624;13.544;2023-05-23T08:28:14;5.95;;;4.05;;
18376;SDS011;9315;52.624;13.544;2023-05-23T08:30:41;22.80;;;4.68;;
18376;SDS011;9315;52.624;13.544;2023-05-23T08:33:12;7.18;;;4.25;;
18376;SDS011;9315;52.624;13.544;2023-05-23T08:35:47;8.10;;;5.00;;
18376;SDS011;9315;52.624;13.544;2023-05-23T08:38:14;9.73;;;4.00;;
18376;SDS011;9315;52.624;13.544;2023-05-23T08:40:50;16.50;;;5.22;;
18376;SDS011;9315;52.624;13.544;2023-05-23T08:43:27;6.47;;;4.13;;
18376;SDS011;9315;52.624;13.544;2023-05-23T08:46:00;10.68;;;4.22;;
18376;SDS011;9315;52.624;13.544;2023-05-23T08:48:30;10.63;;;4.22;;
18376;SDS011;9315;52.624;13.544;2023-05-23T08:51:02;11.07;;;4.55;;
18376;SDS011;9315;52.624;13.544;2023-05-23T08:53:35;9.80;;;4.55;;
18376;SDS011;9315;52.624;13.544;2023-05-23T08:56:03;8.98;;;4.55;;
18376;SDS011;9315;52.624;13.544;2023-05-23T08:58:34;10.57;;;4.60;;
18376;SDS011;9315;52.624;13.544;2023-05-23T09:01:13;9.63;;;4.47;;
18376;SDS011;9315;52.624;13.544;2023-05-23T09:03:43;8.55;;;4.25;;
18376;SDS011;9315;52.624;13.544;2023-05-23T09:06:11;8.27;;;3.75;;
18376;SDS011;9315;52.624;13.544;2023-05-23T09:08:38;10.90;;;4.40;;
18376;SDS011;9315;52.624;13.544;2023-05-23T09:11:05;6.95;;;3.85;;
18376;SDS011;9315;52.624;13.544;2023-05-23T09:13:33;9.30;;;4.93;;
18376;SDS011;9315;52.624;13.544;2023-05-23T09:16:01;10.50;;;4.38;;
18376;SDS011;9315;52.624;13.544;2023-05-23T09:18:41;6.15;;;3.88;;
18376;SDS011;9315;52.624;13.544;2023-05-23T09:21:10;4.82;;;3.92;;
18376;SDS011;9315;52.624;13.544;2023-05-23T09:23:39;7.75;;;4.20;;
18376;SDS011;9315;52.624;13.544;2023-05-23T09:26:10;6.78;;;3.60;;
18376;SDS011;9315;52.624;13.544;2023-05-23T09:28:41;13.43;;;3.90;;
18376;SDS011;9315;52.624;13.544;2023-05-23T09:31:13;10.40;;;4.22;;
18376;SDS011;9315;52.624;13.544;2023-05-23T09:33:45;6.75;;;4.00;;
18376;SDS011;9315;52.624;13.544;2023-05-23T09:36:18;8.63;;;4.45;;
18376;SDS011;9315;52.624;13.544;2023-05-23T09:38:49;12.63;;;4.15;;
18376;SDS011;9315;52.624;13.544;2023-05-23T09:41:40;11.77;;;3.97;;
18376;SDS011;9315;52.624;13.544;2023-05-23T09:44:13;4.97;;;4.00;;
18376;SDS011;9315;52.624;13.544;2023-05-23T09:46:49;8.43;;;4.20;;
18376;SDS011;9315;52.624;13.544;2023-05-23T09:49:21;7.00;;;4.13;;
18376;SDS011;9315;52.624;13.544;2023-05-23T09:52:00;7.10;;;4.28;;
18376;SDS011;9315;52.624;13.544;2023-05-23T09:54:27;7.18;;;3.85;;
18376;SDS011;9315;52.624;13.544;2023-05-23T09:56:55;8.27;;;4.63;;
18376;SDS011;9315;52.624;13.544;2023-05-23T09:59:30;10.18;;;4.47;;
18376;SDS011;9315;52.624;13.544;2023-05-23T10:02:01;8.38;;;4.45;;
18376;SDS011;9315;52.624;13.544;2023-05-23T10:04:45;6.93;;;4.18;;
18376;SDS011;9315;52.624;13.544;2023-05-23T10:07:18;11.13;;;4.90;;
18376;SDS011;9315;52.624;13.544;2023-05-23T10:09:55;10.55;;;4.65;;
18376;SDS011;9315;52.624;13.544;2023-05-23T10:12:44;8.25;;;4.78;;
18376;SDS011;9315;52.624;13.544;2023-05-23T10:15:19;5.40;;;4.18;;
18376;SDS011;9315;52.624;13.544;2023-05-23T10:17:52;6.68;;;4.47;;
18376;SDS011;9315;52.624;13.544;2023-05-23T10:20:34;6.35;;;4.28;;
18376;SDS011;9315;52.624;13.544;2023-05-23T10:23:10;9.52;;;4.75;;
18376;SDS011;9315;52.624;13.544;2023-05-23T10:25:47;12.85;;;4.70;;
18376;SDS011;9315;52.624;13.544;2023-05-23T10:28:15;10.20;;;4.80;;
18376;SDS011;9315;52.624;13.544;2023-05-23T10:30:43;6.90;;;4.20;;
18376;SDS011;9315;52.624;13.544;2023-05-23T10:33:18;8.70;;;4.28;;
18376;SDS011;9315;52.624;13.544;2023-05-23T10:35:59;7.88;;;5.25;;
18376;SDS011;9315;52.624;13.544;2023-05-23T10:42:03;6.75;;;4.40;;
18376;SDS011;9315;52.624;13.544;2023-05-23T10:45:30;7.10;;;4.82;;
18376;SDS011;9315;52.624;13.544;2023-05-23T10:51:06;14.15;;;4.88;;
18376;SDS011;9315;52.624;13.544;2023-05-23T10:53:41;8.20;;;4.18;;
18376;SDS011;9315;52.624;13.544;2023-05-23T10:56:19;11.93;;;4.75;;
18376;SDS011;9315;52.624;13.544;2023-05-23T10:58:56;4.90;;;4.18;;
18376;SDS011;9315;52.624;13.544;2023-05-23T11:01:24;9.38;;;4.20;;
18376;SDS011;9315;52.624;13.544;2023-05-23T11:04:04;8.02;;;4.50;;
18376;SDS011;9315;52.624;13.544;2023-05-23T11:09:30;7.05;;;4.07;;
18376;SDS011;9315;52.624;13.544;2023-05-23T11:12:38;7.60;;;4.22;;
18376;SDS011;9315;52.624;13.544;2023-05-23T11:17:49;8.55;;;4.50;;
18376;SDS011;9315;52.624;13.544;2023-05-23T11:20:25;11.10;;;4.22;;
18376;SDS011;9315;52.624;13.544;2023-05-23T11:23:00;6.47;;;4.80;;
18376;SDS011;9315;52.624;13.544;2023-05-23T11:25:39;10.52;;;4.30;;
18376;SDS011;9315;52.624;13.544;2023-05-23T11:28:19;8.68;;;4.60;;
18376;SDS011;9315;52.624;13.544;2023-05-23T11:30:49;8.68;;;4.70;;
18376;SDS011;9315;52.624;13.544;2023-05-23T11:33:17;9.18;;;4.80;;
18376;SDS011;9315;52.624;13.544;2023-05-23T11:35:46;7.13;;;4.93;;
18376;SDS011;9315;52.624;13.544;2023-05-23T11:38:17;6.13;;;5.00;;
18376;SDS011;9315;52.624;13.544;2023-05-23T11:40:53;11.52;;;5.88;;
18376;SDS011;9315;52.624;13.544;2023-05-23T11:43:21;10.75;;;5.15;;
18376;SDS011;9315;52.624;13.544;2023-05-23T11:46:07;7.95;;;4.75;;
18376;SDS011;9315;52.624;13.544;2023-05-23T11:48:34;6.38;;;4.43;;
18376;SDS011;9315;52.624;13.544;2023-05-23T11:51:02;8.63;;;4.55;;
18376;SDS011;9315;52.624;13.544;2023-05-23T11:53:30;11.90;;;4.50;;
18376;SDS011;9315;52.624;13.544;2023-05-23T11:55:57;5.70;;;4.00;;
18376;SDS011;9315;52.624;13.544;2023-05-23T11:58:28;8.25;;;4.15;;
18376;SDS011;9315;52.624;13.544;2023-05-23T12:01:02;7.03;;;4.43;;
18376;SDS011;9315;52.624;13.544;2023-05-23T12:03:44;6.70;;;4.35;;
18376;SDS011;9315;52.624;13.544;2023-05-23T12:06:19;6.50;;;3.65;;
18376;SDS011;9315;52.624;13.544;2023-05-23T12:08:50;7.80;;;4.82;;
18376;SDS011;9315;52.624;13.544;2023-05-23T12:11:18;17.33;;;5.25;;
18376;SDS011;9315;52.624;13.544;2023-05-23T12:13:47;6.32;;;5.03;;
18376;SDS011;9315;52.624;13.544;2023-05-23T12:16:18;10.30;;;5.38;;
18376;SDS011;9315;52.624;13.544;2023-05-23T12:18:46;8.75;;;5.63;;
18376;SDS011;9315;52.624;13.544;2023-05-23T12:21:14;7.75;;;5.57;;
18376;SDS011;9315;52.624;13.544;2023-05-23T12:23:41;6.68;;;4.93;;
18376;SDS011;9315;52.624;13.544;2023-05-23T12:26:09;9.38;;;6.03;;
18376;SDS011;9315;52.624;13.544;2023-05-23T12:28:37;10.40;;;6.95;;
18376;SDS011;9315;52.624;13.544;2023-05-23T12:31:16;11.88;;;7.53;;
18376;SDS011;9315;52.624;13.544;2023-05-23T12:33:48;11.77;;;6.90;;
18376;SDS011;9315;52.624;13.544;2023-05-23T12:36:25;15.50;;;8.25;;
18376;SDS011;9315;52.624;13.544;2023-05-23T12:39:01;11.48;;;8.27;;
18376;SDS011;9315;52.624;13.544;2023-05-23T12:41:30;12.77;;;9.07;;
18376;SDS011;9315;52.624;13.544;2023-05-23T12:43:59;12.38;;;9.23;;
18376;SDS011;9315;52.624;13.544;2023-05-23T12:46:27;12.35;;;8.88;;
18376;SDS011;9315;52.624;13.544;2023-05-23T12:48:54;15.20;;;10.50;;
18376;SDS011;9315;52.624;13.544;2023-05-23T12:51:22;17.85;;;11.80;;
18376;SDS011;9315;52.624;13.544;2023-05-23T12:53:50;19.90;;;11.60;;
18376;SDS011;9315;52.624;13.544;2023-05-23T12:56:19;21.35;;;11.70;;
18376;SDS011;9315;52.624;13.544;2023-05-23T12:58:47;18.63;;;12.52;;
18376;SDS011;9315;52.624;13.544;2023-05-23T13:01:21;21.60;;;13.07;;
18376;SDS011;9315;52.624;13.544;2023-05-23T13:03:48;24.98;;;12.05;;
18376;SDS011;9315;52.624;13.544;2023-05-23T13:06:16;21.80;;;13.32;;
18376;SDS011;9315;52.624;13.544;2023-05-23T13:08:44;25.10;;;13.57;;
18376;SDS011;9315;52.624;13.544;2023-05-23T13:11:12;18.73;;;12.18;;
18376;SDS011;9315;52.624;13.544;2023-05-23T13:13:39;16.63;;;12.07;;
18376;SDS011;9315;52.624;13.544;2023-05-23T13:16:13;19.33;;;12.63;;
18376;SDS011;9315;52.624;13.544;2023-05-23T13:18:51;16.75;;;11.63;;
18376;SDS011;9315;52.624;13.544;2023-05-23T13:21:34;23.35;;;12.40;;
18376;SDS011;9315;52.624;13.544;2023-05-23T13:24:02;19.63;;;12.00;;
18376;SDS011;9315;52.624;13.544;2023-05-23T13:26:29;27.20;;;12.00;;
18376;SDS011;9315;52.624;13.544;2023-05-23T13:29:04;18.33;;;12.77;;
18376;SDS011;9315;52.624;13.544;2023-05-23T13:31:36;17.27;;;12.52;;
18376;SDS011;9315;52.624;13.544;2023-05-23T13:34:04;17.10;;;11.43;;
18376;SDS011;9315;52.624;13.544;2023-05-23T13:36:32;20.45;;;12.35;;
18376;SDS011;9315;52.624;13.544;2023-05-23T13:39:01;19.48;;;12.18;;
18376;SDS011;9315;52.624;13.544;2023-05-23T13:41:32;22.52;;;12.63;;
18376;SDS011;9315;52.624;13.544;2023-05-23T13:44:01;20.88;;;12.35;;
18376;SDS011;9315;52.624;13.544;2023-05-23T13:46:29;21.67;;;13.18;;
18376;SDS011;9315;52.624;13.544;2023-05-23T13:48:59;17.88;;;12.90;;
18376;SDS011;9315;52.624;13.544;2023-05-23T13:51:28;21.27;;;13.35;;
18376;SDS011;9315;52.624;13.544;2023-05-23T13:53:57;18.63;;;12.25;;
18376;SDS011;9315;52.624;13.544;2023-05-23T13:56:24;19.95;;;13.20;;
18376;SDS011;9315;52.624;13.544;2023-05-23T13:58:53;20.35;;;11.77;;
18376;SDS011;9315;52.624;13.544;2023-05-23T14:01:23;19.55;;;12.57;;
18376;SDS011;9315;52.624;13.544;2023-05-23T14:03:50;25.10;;;14.10;;
18376;SDS011;9315;52.624;13.544;2023-05-23T14:06:18;26.23;;;14.00;;
18376;SDS011;9315;52.624;13.544;2023-05-23T14:08:46;26.88;;;13.60;;
18376;SDS011;9315;52.624;13.544;2023-05-23T14:11:23;23.65;;;14.00;;
18376;SDS011;9315;52.624;13.544;2023-05-23T14:13:54;28.20;;;13.73;;
18376;SDS011;9315;52.624;13.544;2023-05-23T14:16:26;20.67;;;12.45;;
18376;SDS011;9315;52.624;13.544;2023-05-23T14:19:00;20.35;;;13.20;;
18376;SDS011;9315;52.624;13.544;2023-05-23T14:21:27;24.80;;;14.38;;
18376;SDS011;9315;52.624;13.544;2023-05-23T14:23:55;32.15;;;13.77;;
18376;SDS011;9315;52.624;13.544;2023-05-23T14:26:22;21.20;;;13.32;;
18376;SDS011;9315;52.624;13.544;2023-05-23T14:28:58;21.35;;;13.25;;
18376;SDS011;9315;52.624;13.544;2023-05-23T14:31:29;21.38;;;12.43;;
18376;SDS011;9315;52.624;13.544;2023-05-23T14:33:57;17.83;;;11.95;;
18376;SDS011;9315;52.624;13.544;2023-05-23T14:36:26;18.38;;;12.38;;
18376;SDS011;9315;52.624;13.544;2023-05-23T14:38:53;22.92;;;13.73;;
18376;SDS011;9315;52.624;13.544;2023-05-23T14:41:21;17.70;;;11.50;;
18376;SDS011;9315;52.624;13.544;2023-05-23T14:43:48;20.27;;;11.63;;
18376;SDS011;9315;52.624;13.544;2023-05-23T14:46:20;20.10;;;12.23;;
18376;SDS011;9315;52.624;13.544;2023-05-23T14:48:48;17.23;;;11.43;;
18376;SDS011;9315;52.624;13.544;2023-05-23T14:51:18;16.85;;;11.07;;
18376;SDS011;9315;52.624;13.544;2023-05-23T14:54:06;15.30;;;10.20;;
18376;SDS011;9315;52.624;13.544;2023-05-23T14:56:34;15.02;;;10.10;;
18376;SDS011;9315;52.624;13.544;2023-05-23T14:59:07;15.18;;;9.48;;
18376;SDS011;9315;52.624;13.544;2023-05-23T15:01:36;17.65;;;10.30;;
18376;SDS011;9315;52.624;13.544;2023-05-23T15:04:06;15.50;;;10.32;;
18376;SDS011;9315;52.624;13.544;2023-05-23T15:06:37;15.77;;;9.88;;
18376;SDS011;9315;52.624;13.544;2023-05-23T15:09:05;13.15;;;9.32;;
18376;SDS011;9315;52.624;13.544;2023-05-23T15:11:34;14.25;;;9.10;;
18376;SDS011;9315;52.624;13.544;2023-05-23T15:14:04;14.18;;;8.93;;
18376;SDS011;9315;52.624;13.544;2023-05-23T15:16:34;12.57;;;7.15;;
18376;SDS011;9315;52.624;13.544;2023-05-23T15:19:05;9.27;;;4.70;;
18376;SDS011;9315;52.624;13.544;2023-05-23T15:21:32;6.60;;;4.25;;
18376;SDS011;9315;52.624;13.544;2023-05-23T15:24:02;6.57;;;3.83;;
18376;SDS011;9315;52.624;13.544;2023-05-23T15:26:31;8.40;;;4.13;;
18376;SDS011;9315;52.624;13.544;2023-05-23T15:28:58;5.47;;;3.60;;
18376;SDS011;9315;52.624;13.544;2023-05-23T15:31:25;6.88;;;3.47;;
18376;SDS011;9315;52.624;13.544;2023-05-23T15:33:53;3.73;;;2.80;;
18376;SDS011;9315;52.624;13.544;2023-05-23T15:36:21;9.13;;;3.93;;
18376;SDS011;9315;52.624;13.544;2023-05-23T15:38:49;6.57;;;3.53;;
18376;SDS011;9315;52.624;13.544;2023-05-23T15:41:17;8.07;;;3.77;;
18376;SDS011;9315;52.624;13.544;2023-05-23T15:43:45;6.20;;;3.60;;
18376;SDS011;9315;52.624;13.544;2023-05-23T15:46:19;6.07;;;3.50;;
18376;SDS011;9315;52.624;13.544;2023-05-23T15:48:53;5.67;;;3.87;;
18376;SDS011;9315;52.624;13.544;2023-05-23T15:51:38;6.97;;;2.70;;